Main page
METAR-TAF:

METAR-TAF

Airports :

Cambridge Airport

Cambridge, England

latitude: 52-12N, longitude: 000-11E, elevation: 15 m

Current weather observation

The report was made 5 hours and 1 minutes ago, at 17:50 UTC
Wind 8 kt from the Northeast
Temperature 4°C
Humidity 87%
Pressure 1007 hPa
Visibility 10 km or more
Broken clouds at a height of 3600 ft

METAR: EGSC 201750Z 04008KT 9999 BKN036 04/02 Q1007

Time: 22:51 (22:51 UTC)

Forecast

The report was made 5 hours and 54 minutes ago, at 16:57 UTC
Forecast valid from 20 at 18 UTC to 20 at 21 UTC
Wind 10 kt from the East/Northeast
Visibility 10 km or more
Broken clouds at a height of 2000 ft
Temporary
from 20 at 18 UTC to 20 at 21 UTC
Visibility: 7000 m
Broken clouds at a height of 1200 ft
light rain showers
Probability 30% :
Temporary
from 20 at 18 UTC to 20 at 21 UTC
Wind 15 kt from the East/Northeast with gusts up to 25 kt

TAF: EGSC 201657Z 2018/2021 06010KT 9999 BKN020 TEMPO 2018/2021 7000 -SHRA BKN012 PROB30 TEMPO 2018/2021 06015G25KT

Weather observations and forecasts of more than 4000 airports (METAR and TAF reports).

The available stations are represented by yellow and red dots on the map.

Hover mouse over dot to see the name of the station.

Then click to see weather observations and forecasts.

To change the map : click on the green buttons with a black cross to zoom in, on the green button with a dash to zoom out, or on the green arrows for adjacent maps.


METAR-TAF: